Terminal Aerodrome Forecast
Issued by NWS

Home | Current Version | Previous Version | Text Only | Print | Product List | Glossary On
Versions: 1 2 3 4 5 6 7 8 9 10 11 12 13
000
FTUS45 KABQ 162329
TAFFMN
TAF
KFMN 162329Z 1700/1724 27008KT P6SM SKC
     FM170200 29006KT P6SM SKC
     FM170800 08006KT P6SM FEW110
     FM171200 10006KT P6SM SCT120
     FM172000 26008KT P6SM FEW110=

USA.gov is the U.S. government's official web portal to all federal, state and local government web resources and services.